sensor_id;sensor_type;location;lat;lon;timestamp;P1;durP1;ratioP1;P2;durP2;ratioP2
25231;SDS011;13176;51.140;6.290;2023-12-04T00:01:01;17.67;;;15.88;;
25231;SDS011;13176;51.140;6.290;2023-12-04T00:03:28;17.23;;;15.52;;
25231;SDS011;13176;51.140;6.290;2023-12-04T00:05:55;17.35;;;15.43;;
25231;SDS011;13176;51.140;6.290;2023-12-04T00:08:21;18.67;;;16.25;;
25231;SDS011;13176;51.140;6.290;2023-12-04T00:10:47;16.73;;;14.98;;
25231;SDS011;13176;51.140;6.290;2023-12-04T00:13:14;17.63;;;15.80;;
25231;SDS011;13176;51.140;6.290;2023-12-04T00:15:41;17.08;;;15.35;;
25231;SDS011;13176;51.140;6.290;2023-12-04T00:18:07;16.35;;;14.75;;
25231;SDS011;13176;51.140;6.290;2023-12-04T00:20:34;19.05;;;17.20;;
25231;SDS011;13176;51.140;6.290;2023-12-04T00:23:00;17.58;;;15.77;;
25231;SDS011;13176;51.140;6.290;2023-12-04T00:25:27;16.02;;;14.32;;
25231;SDS011;13176;51.140;6.290;2023-12-04T00:27:53;17.15;;;15.38;;
25231;SDS011;13176;51.140;6.290;2023-12-04T00:30:20;18.35;;;16.35;;
25231;SDS011;13176;51.140;6.290;2023-12-04T00:32:46;16.05;;;14.40;;
25231;SDS011;13176;51.140;6.290;2023-12-04T00:35:13;15.75;;;14.20;;
25231;SDS011;13176;51.140;6.290;2023-12-04T00:37:39;16.27;;;14.68;;
25231;SDS011;13176;51.140;6.290;2023-12-04T00:40:06;17.77;;;15.98;;
25231;SDS011;13176;51.140;6.290;2023-12-04T00:42:36;18.48;;;15.63;;
25231;SDS011;13176;51.140;6.290;2023-12-04T00:45:02;17.35;;;15.55;;
25231;SDS011;13176;51.140;6.290;2023-12-04T00:47:29;16.45;;;14.85;;
25231;SDS011;13176;51.140;6.290;2023-12-04T00:49:56;17.13;;;15.35;;
25231;SDS011;13176;51.140;6.290;2023-12-04T00:52:22;15.85;;;14.23;;
25231;SDS011;13176;51.140;6.290;2023-12-04T00:54:49;17.90;;;15.63;;
25231;SDS011;13176;51.140;6.290;2023-12-04T00:57:15;17.25;;;15.50;;
25231;SDS011;13176;51.140;6.290;2023-12-04T00:59:42;18.30;;;16.27;;
25231;SDS011;13176;51.140;6.290;2023-12-04T01:02:08;17.33;;;15.52;;
25231;SDS011;13176;51.140;6.290;2023-12-04T01:04:35;16.40;;;14.80;;
25231;SDS011;13176;51.140;6.290;2023-12-04T01:07:01;16.52;;;14.95;;
25231;SDS011;13176;51.140;6.290;2023-12-04T01:09:28;17.60;;;15.57;;
25231;SDS011;13176;51.140;6.290;2023-12-04T01:11:55;15.30;;;13.90;;
25231;SDS011;13176;51.140;6.290;2023-12-04T01:14:21;16.63;;;15.13;;
25231;SDS011;13176;51.140;6.290;2023-12-04T01:16:48;17.88;;;16.05;;
25231;SDS011;13176;51.140;6.290;2023-12-04T01:19:14;15.52;;;14.05;;
25231;SDS011;13176;51.140;6.290;2023-12-04T01:21:41;17.17;;;15.48;;
25231;SDS011;13176;51.140;6.290;2023-12-04T01:24:08;16.50;;;14.90;;
25231;SDS011;13176;51.140;6.290;2023-12-04T01:26:34;16.15;;;14.45;;
25231;SDS011;13176;51.140;6.290;2023-12-04T01:29:01;14.95;;;13.55;;
25231;SDS011;13176;51.140;6.290;2023-12-04T01:31:27;18.00;;;15.85;;
25231;SDS011;13176;51.140;6.290;2023-12-04T01:33:54;16.02;;;14.43;;
25231;SDS011;13176;51.140;6.290;2023-12-04T01:36:21;15.23;;;13.82;;
25231;SDS011;13176;51.140;6.290;2023-12-04T01:38:47;16.75;;;15.07;;
25231;SDS011;13176;51.140;6.290;2023-12-04T01:41:14;16.25;;;14.75;;
25231;SDS011;13176;51.140;6.290;2023-12-04T01:43:40;16.02;;;14.50;;
25231;SDS011;13176;51.140;6.290;2023-12-04T01:46:07;18.33;;;14.82;;
25231;SDS011;13176;51.140;6.290;2023-12-04T01:48:33;16.15;;;14.65;;
25231;SDS011;13176;51.140;6.290;2023-12-04T01:51:01;15.18;;;13.85;;
25231;SDS011;13176;51.140;6.290;2023-12-04T01:53:32;15.52;;;13.93;;
25231;SDS011;13176;51.140;6.290;2023-12-04T01:55:59;15.57;;;13.98;;
25231;SDS011;13176;51.140;6.290;2023-12-04T01:58:26;17.08;;;15.35;;
25231;SDS011;13176;51.140;6.290;2023-12-04T02:00:53;16.45;;;14.77;;
25231;SDS011;13176;51.140;6.290;2023-12-04T02:03:19;16.50;;;14.68;;
25231;SDS011;13176;51.140;6.290;2023-12-04T02:05:46;15.63;;;14.13;;
25231;SDS011;13176;51.140;6.290;2023-12-04T02:08:13;15.68;;;14.25;;
25231;SDS011;13176;51.140;6.290;2023-12-04T02:10:40;16.67;;;15.07;;
25231;SDS011;13176;51.140;6.290;2023-12-04T02:13:06;16.20;;;14.75;;
25231;SDS011;13176;51.140;6.290;2023-12-04T02:15:33;16.42;;;14.73;;
25231;SDS011;13176;51.140;6.290;2023-12-04T02:17:59;16.77;;;15.05;;
25231;SDS011;13176;51.140;6.290;2023-12-04T02:20:35;16.83;;;15.13;;
25231;SDS011;13176;51.140;6.290;2023-12-04T02:23:02;15.50;;;14.00;;
25231;SDS011;13176;51.140;6.290;2023-12-04T02:25:29;15.75;;;14.23;;
25231;SDS011;13176;51.140;6.290;2023-12-04T02:28:05;17.02;;;15.35;;
25231;SDS011;13176;51.140;6.290;2023-12-04T02:30:33;16.35;;;14.93;;
25231;SDS011;13176;51.140;6.290;2023-12-04T02:33:04;16.08;;;14.63;;
25231;SDS011;13176;51.140;6.290;2023-12-04T02:35:32;16.42;;;14.82;;
25231;SDS011;13176;51.140;6.290;2023-12-04T02:38:00;15.57;;;14.02;;
25231;SDS011;13176;51.140;6.290;2023-12-04T02:40:28;15.98;;;14.00;;
25231;SDS011;13176;51.140;6.290;2023-12-04T02:42:55;13.90;;;12.50;;
25231;SDS011;13176;51.140;6.290;2023-12-04T02:45:22;15.40;;;13.98;;
25231;SDS011;13176;51.140;6.290;2023-12-04T02:47:48;15.25;;;13.80;;
25231;SDS011;13176;51.140;6.290;2023-12-04T02:50:15;13.48;;;12.35;;
25231;SDS011;13176;51.140;6.290;2023-12-04T02:52:42;15.50;;;13.70;;
25231;SDS011;13176;51.140;6.290;2023-12-04T02:55:08;15.73;;;14.18;;
25231;SDS011;13176;51.140;6.290;2023-12-04T02:57:34;14.55;;;13.27;;
25231;SDS011;13176;51.140;6.290;2023-12-04T03:00:01;15.02;;;13.57;;
25231;SDS011;13176;51.140;6.290;2023-12-04T03:02:28;14.15;;;12.48;;
25231;SDS011;13176;51.140;6.290;2023-12-04T03:04:55;14.50;;;12.73;;
25231;SDS011;13176;51.140;6.290;2023-12-04T03:07:22;13.88;;;12.57;;
25231;SDS011;13176;51.140;6.290;2023-12-04T03:09:50;12.75;;;11.60;;
25231;SDS011;13176;51.140;6.290;2023-12-04T03:12:16;12.70;;;11.60;;
25231;SDS011;13176;51.140;6.290;2023-12-04T03:14:43;12.98;;;11.68;;
25231;SDS011;13176;51.140;6.290;2023-12-04T03:17:10;13.23;;;12.13;;
25231;SDS011;13176;51.140;6.290;2023-12-04T03:19:36;13.05;;;11.75;;
25231;SDS011;13176;51.140;6.290;2023-12-04T03:22:03;13.13;;;11.85;;
25231;SDS011;13176;51.140;6.290;2023-12-04T03:24:29;12.95;;;11.65;;
25231;SDS011;13176;51.140;6.290;2023-12-04T03:26:56;12.27;;;11.18;;
25231;SDS011;13176;51.140;6.290;2023-12-04T03:29:23;12.65;;;10.90;;
25231;SDS011;13176;51.140;6.290;2023-12-04T03:31:49;11.68;;;10.50;;
25231;SDS011;13176;51.140;6.290;2023-12-04T03:34:16;11.77;;;10.43;;
25231;SDS011;13176;51.140;6.290;2023-12-04T03:36:42;11.63;;;10.45;;
25231;SDS011;13176;51.140;6.290;2023-12-04T03:39:09;11.40;;;10.35;;
25231;SDS011;13176;51.140;6.290;2023-12-04T03:41:35;11.48;;;10.48;;
25231;SDS011;13176;51.140;6.290;2023-12-04T03:44:02;11.88;;;10.77;;
25231;SDS011;13176;51.140;6.290;2023-12-04T03:46:28;10.57;;;9.65;;
25231;SDS011;13176;51.140;6.290;2023-12-04T03:48:55;11.57;;;9.65;;
25231;SDS011;13176;51.140;6.290;2023-12-04T03:51:22;11.23;;;10.13;;
25231;SDS011;13176;51.140;6.290;2023-12-04T03:53:48;10.23;;;9.30;;
25231;SDS011;13176;51.140;6.290;2023-12-04T03:56:17;10.88;;;9.82;;
25231;SDS011;13176;51.140;6.290;2023-12-04T03:58:43;12.20;;;9.90;;
25231;SDS011;13176;51.140;6.290;2023-12-04T04:01:10;10.50;;;9.50;;
25231;SDS011;13176;51.140;6.290;2023-12-04T04:03:36;11.27;;;10.27;;
25231;SDS011;13176;51.140;6.290;2023-12-04T04:06:06;10.95;;;9.88;;
25231;SDS011;13176;51.140;6.290;2023-12-04T04:08:32;11.43;;;9.30;;
25231;SDS011;13176;51.140;6.290;2023-12-04T04:10:59;10.65;;;9.65;;
25231;SDS011;13176;51.140;6.290;2023-12-04T04:13:26;12.68;;;10.20;;
25231;SDS011;13176;51.140;6.290;2023-12-04T04:15:52;10.52;;;9.48;;
25231;SDS011;13176;51.140;6.290;2023-12-04T04:18:19;10.32;;;9.32;;
25231;SDS011;13176;51.140;6.290;2023-12-04T04:20:46;10.52;;;9.45;;
25231;SDS011;13176;51.140;6.290;2023-12-04T04:23:14;10.52;;;9.52;;
25231;SDS011;13176;51.140;6.290;2023-12-04T04:25:41;10.63;;;9.55;;
25231;SDS011;13176;51.140;6.290;2023-12-04T04:28:07;10.63;;;9.52;;
25231;SDS011;13176;51.140;6.290;2023-12-04T04:30:34;11.82;;;10.60;;
25231;SDS011;13176;51.140;6.290;2023-12-04T04:33:00;10.73;;;9.73;;
25231;SDS011;13176;51.140;6.290;2023-12-04T04:35:30;10.43;;;9.43;;
25231;SDS011;13176;51.140;6.290;2023-12-04T04:38:00;10.70;;;9.60;;
25231;SDS011;13176;51.140;6.290;2023-12-04T04:40:29;9.57;;;8.75;;
25231;SDS011;13176;51.140;6.290;2023-12-04T04:42:56;10.93;;;9.93;;
25231;SDS011;13176;51.140;6.290;2023-12-04T04:45:22;10.73;;;9.43;;
25231;SDS011;13176;51.140;6.290;2023-12-04T04:47:49;10.20;;;9.23;;
25231;SDS011;13176;51.140;6.290;2023-12-04T04:50:15;10.85;;;9.90;;
25231;SDS011;13176;51.140;6.290;2023-12-04T04:52:42;9.88;;;9.07;;
25231;SDS011;13176;51.140;6.290;2023-12-04T04:55:08;10.23;;;9.23;;
25231;SDS011;13176;51.140;6.290;2023-12-04T04:57:35;10.10;;;9.02;;
25231;SDS011;13176;51.140;6.290;2023-12-04T05:00:01;9.35;;;8.52;;
25231;SDS011;13176;51.140;6.290;2023-12-04T05:02:28;10.15;;;9.32;;
25231;SDS011;13176;51.140;6.290;2023-12-04T05:04:55;10.15;;;9.18;;
25231;SDS011;13176;51.140;6.290;2023-12-04T05:07:22;10.05;;;9.05;;
25231;SDS011;13176;51.140;6.290;2023-12-04T05:09:48;9.98;;;9.05;;
25231;SDS011;13176;51.140;6.290;2023-12-04T05:12:15;10.95;;;9.85;;
25231;SDS011;13176;51.140;6.290;2023-12-04T05:14:41;9.95;;;9.10;;
25231;SDS011;13176;51.140;6.290;2023-12-04T05:17:08;11.05;;;9.98;;
25231;SDS011;13176;51.140;6.290;2023-12-04T05:19:34;9.70;;;8.85;;
25231;SDS011;13176;51.140;6.290;2023-12-04T05:22:01;10.35;;;9.23;;
25231;SDS011;13176;51.140;6.290;2023-12-04T05:24:27;10.43;;;9.40;;
25231;SDS011;13176;51.140;6.290;2023-12-04T05:26:54;10.38;;;9.38;;
25231;SDS011;13176;51.140;6.290;2023-12-04T05:29:20;11.73;;;8.90;;
25231;SDS011;13176;51.140;6.290;2023-12-04T05:31:47;10.25;;;9.20;;
25231;SDS011;13176;51.140;6.290;2023-12-04T05:34:13;9.82;;;8.88;;
25231;SDS011;13176;51.140;6.290;2023-12-04T05:36:40;10.10;;;9.07;;
25231;SDS011;13176;51.140;6.290;2023-12-04T05:39:07;10.38;;;9.38;;
25231;SDS011;13176;51.140;6.290;2023-12-04T05:41:33;10.23;;;9.13;;
25231;SDS011;13176;51.140;6.290;2023-12-04T05:44:00;9.88;;;9.05;;
25231;SDS011;13176;51.140;6.290;2023-12-04T05:46:27;10.45;;;9.45;;
25231;SDS011;13176;51.140;6.290;2023-12-04T05:48:53;10.52;;;9.52;;
25231;SDS011;13176;51.140;6.290;2023-12-04T05:51:20;11.25;;;9.73;;
25231;SDS011;13176;51.140;6.290;2023-12-04T05:53:46;10.50;;;8.95;;
25231;SDS011;13176;51.140;6.290;2023-12-04T05:56:13;10.13;;;9.23;;
25231;SDS011;13176;51.140;6.290;2023-12-04T05:58:39;10.95;;;9.50;;
25231;SDS011;13176;51.140;6.290;2023-12-04T06:01:06;14.93;;;8.85;;
25231;SDS011;13176;51.140;6.290;2023-12-04T06:03:33;10.75;;;9.65;;
25231;SDS011;13176;51.140;6.290;2023-12-04T06:05:59;10.13;;;9.13;;
25231;SDS011;13176;51.140;6.290;2023-12-04T06:08:30;11.07;;;9.95;;
25231;SDS011;13176;51.140;6.290;2023-12-04T06:10:56;10.73;;;9.75;;
25231;SDS011;13176;51.140;6.290;2023-12-04T06:13:24;11.02;;;9.93;;
25231;SDS011;13176;51.140;6.290;2023-12-04T06:15:50;10.35;;;8.82;;
25231;SDS011;13176;51.140;6.290;2023-12-04T06:18:17;13.02;;;10.18;;
25231;SDS011;13176;51.140;6.290;2023-12-04T06:20:43;10.48;;;9.30;;
25231;SDS011;13176;51.140;6.290;2023-12-04T06:23:10;10.73;;;9.65;;
25231;SDS011;13176;51.140;6.290;2023-12-04T06:25:36;10.02;;;9.13;;
25231;SDS011;13176;51.140;6.290;2023-12-04T06:28:04;11.45;;;10.45;;
25231;SDS011;13176;51.140;6.290;2023-12-04T06:30:31;10.77;;;8.82;;
25231;SDS011;13176;51.140;6.290;2023-12-04T06:32:58;9.90;;;9.00;;
25231;SDS011;13176;51.140;6.290;2023-12-04T06:35:25;9.35;;;8.35;;
25231;SDS011;13176;51.140;6.290;2023-12-04T06:37:54;9.68;;;8.77;;
25231;SDS011;13176;51.140;6.290;2023-12-04T06:40:22;10.13;;;8.90;;
25231;SDS011;13176;51.140;6.290;2023-12-04T06:42:49;9.32;;;8.43;;
25231;SDS011;13176;51.140;6.290;2023-12-04T06:45:15;9.55;;;8.65;;
25231;SDS011;13176;51.140;6.290;2023-12-04T06:47:43;11.77;;;9.48;;
25231;SDS011;13176;51.140;6.290;2023-12-04T06:50:10;10.63;;;9.52;;
25231;SDS011;13176;51.140;6.290;2023-12-04T06:52:36;12.98;;;9.80;;
25231;SDS011;13176;51.140;6.290;2023-12-04T06:55:03;9.55;;;8.73;;
25231;SDS011;13176;51.140;6.290;2023-12-04T06:57:29;9.80;;;8.82;;
25231;SDS011;13176;51.140;6.290;2023-12-04T06:59:56;9.73;;;8.82;;
25231;SDS011;13176;51.140;6.290;2023-12-04T07:02:22;10.80;;;9.55;;
25231;SDS011;13176;51.140;6.290;2023-12-04T07:04:49;10.05;;;9.05;;
25231;SDS011;13176;51.140;6.290;2023-12-04T07:07:15;9.70;;;8.82;;
25231;SDS011;13176;51.140;6.290;2023-12-04T07:09:42;9.57;;;8.57;;
25231;SDS011;13176;51.140;6.290;2023-12-04T07:12:09;9.80;;;8.68;;
25231;SDS011;13176;51.140;6.290;2023-12-04T07:14:35;11.93;;;8.82;;
25231;SDS011;13176;51.140;6.290;2023-12-04T07:17:02;10.50;;;9.35;;
25231;SDS011;13176;51.140;6.290;2023-12-04T07:19:28;9.90;;;9.00;;
25231;SDS011;13176;51.140;6.290;2023-12-04T07:21:55;10.18;;;9.18;;
25231;SDS011;13176;51.140;6.290;2023-12-04T07:24:21;11.82;;;10.38;;
25231;SDS011;13176;51.140;6.290;2023-12-04T07:26:48;10.40;;;9.30;;
25231;SDS011;13176;51.140;6.290;2023-12-04T07:29:17;10.93;;;9.82;;
25231;SDS011;13176;51.140;6.290;2023-12-04T07:31:45;13.02;;;9.50;;
25231;SDS011;13176;51.140;6.290;2023-12-04T07:34:12;10.55;;;9.52;;
25231;SDS011;13176;51.140;6.290;2023-12-04T07:36:38;11.65;;;10.35;;
25231;SDS011;13176;51.140;6.290;2023-12-04T07:39:05;11.18;;;10.18;;
25231;SDS011;13176;51.140;6.290;2023-12-04T07:41:33;14.20;;;9.85;;
25231;SDS011;13176;51.140;6.290;2023-12-04T07:43:59;13.43;;;11.07;;
25231;SDS011;13176;51.140;6.290;2023-12-04T07:46:26;14.65;;;12.00;;
25231;SDS011;13176;51.140;6.290;2023-12-04T07:48:52;11.93;;;10.82;;
25231;SDS011;13176;51.140;6.290;2023-12-04T07:51:21;11.95;;;10.77;;
25231;SDS011;13176;51.140;6.290;2023-12-04T07:53:48;12.45;;;11.25;;
25231;SDS011;13176;51.140;6.290;2023-12-04T07:56:14;12.13;;;10.93;;
25231;SDS011;13176;51.140;6.290;2023-12-04T07:58:41;11.98;;;10.82;;
25231;SDS011;13176;51.140;6.290;2023-12-04T08:01:07;15.18;;;11.75;;
25231;SDS011;13176;51.140;6.290;2023-12-04T08:03:34;13.32;;;11.63;;
25231;SDS011;13176;51.140;6.290;2023-12-04T08:06:02;13.48;;;11.57;;
25231;SDS011;13176;51.140;6.290;2023-12-04T08:08:29;12.57;;;11.27;;
25231;SDS011;13176;51.140;6.290;2023-12-04T08:10:55;12.50;;;11.38;;
25231;SDS011;13176;51.140;6.290;2023-12-04T08:13:22;14.82;;;12.50;;
25231;SDS011;13176;51.140;6.290;2023-12-04T08:15:48;14.98;;;12.35;;
25231;SDS011;13176;51.140;6.290;2023-12-04T08:18:15;13.68;;;12.27;;
25231;SDS011;13176;51.140;6.290;2023-12-04T08:20:42;14.88;;;13.30;;
25231;SDS011;13176;51.140;6.290;2023-12-04T08:23:08;14.20;;;12.70;;
25231;SDS011;13176;51.140;6.290;2023-12-04T08:25:35;14.32;;;12.90;;
25231;SDS011;13176;51.140;6.290;2023-12-04T08:28:05;13.73;;;12.30;;
25231;SDS011;13176;51.140;6.290;2023-12-04T08:30:32;13.85;;;12.43;;
25231;SDS011;13176;51.140;6.290;2023-12-04T08:32:59;13.70;;;12.32;;
25231;SDS011;13176;51.140;6.290;2023-12-04T08:35:25;13.60;;;12.13;;
25231;SDS011;13176;51.140;6.290;2023-12-04T08:37:52;13.40;;;11.93;;
25231;SDS011;13176;51.140;6.290;2023-12-04T08:40:18;13.10;;;11.70;;
25231;SDS011;13176;51.140;6.290;2023-12-04T08:42:45;13.85;;;12.00;;
25231;SDS011;13176;51.140;6.290;2023-12-04T08:45:11;13.38;;;12.10;;
25231;SDS011;13176;51.140;6.290;2023-12-04T08:47:38;14.52;;;13.02;;
25231;SDS011;13176;51.140;6.290;2023-12-04T08:50:05;13.07;;;11.82;;
25231;SDS011;13176;51.140;6.290;2023-12-04T08:52:32;12.45;;;11.15;;
25231;SDS011;13176;51.140;6.290;2023-12-04T08:55:00;20.02;;;12.30;;
25231;SDS011;13176;51.140;6.290;2023-12-04T08:57:27;12.75;;;11.55;;
25231;SDS011;13176;51.140;6.290;2023-12-04T08:59:57;12.77;;;11.32;;
25231;SDS011;13176;51.140;6.290;2023-12-04T09:02:24;13.15;;;11.38;;
25231;SDS011;13176;51.140;6.290;2023-12-04T09:04:51;13.05;;;11.75;;
25231;SDS011;13176;51.140;6.290;2023-12-04T09:07:18;12.32;;;11.13;;
25231;SDS011;13176;51.140;6.290;2023-12-04T09:09:47;12.25;;;11.15;;
25231;SDS011;13176;51.140;6.290;2023-12-04T09:12:14;12.25;;;10.68;;
25231;SDS011;13176;51.140;6.290;2023-12-04T09:14:41;12.23;;;11.02;;
25231;SDS011;13176;51.140;6.290;2023-12-04T09:17:07;11.80;;;10.60;;
25231;SDS011;13176;51.140;6.290;2023-12-04T09:19:34;12.80;;;11.25;;
25231;SDS011;13176;51.140;6.290;2023-12-04T09:22:01;11.68;;;10.48;;
25231;SDS011;13176;51.140;6.290;2023-12-04T09:24:42;12.88;;;10.75;;
25231;SDS011;13176;51.140;6.290;2023-12-04T09:27:08;10.80;;;9.80;;
25231;SDS011;13176;51.140;6.290;2023-12-04T09:29:35;11.75;;;10.57;;
25231;SDS011;13176;51.140;6.290;2023-12-04T09:32:01;22.70;;;10.65;;
25231;SDS011;13176;51.140;6.290;2023-12-04T09:34:27;11.25;;;10.23;;
25231;SDS011;13176;51.140;6.290;2023-12-04T09:36:54;12.80;;;10.25;;
25231;SDS011;13176;51.140;6.290;2023-12-04T09:39:34;11.95;;;10.75;;
25231;SDS011;13176;51.140;6.290;2023-12-04T09:42:01;11.90;;;10.65;;
25231;SDS011;13176;51.140;6.290;2023-12-04T09:44:28;11.52;;;10.35;;
25231;SDS011;13176;51.140;6.290;2023-12-04T09:46:57;11.80;;;10.57;;
25231;SDS011;13176;51.140;6.290;2023-12-04T09:49:25;12.07;;;10.85;;
25231;SDS011;13176;51.140;6.290;2023-12-04T09:51:57;12.02;;;10.90;;
25231;SDS011;13176;51.140;6.290;2023-12-04T09:54:24;11.45;;;10.38;;
25231;SDS011;13176;51.140;6.290;2023-12-04T09:56:52;12.43;;;11.13;;
25231;SDS011;13176;51.140;6.290;2023-12-04T09:59:19;12.60;;;11.35;;
25231;SDS011;13176;51.140;6.290;2023-12-04T10:01:51;11.90;;;10.77;;
25231;SDS011;13176;51.140;6.290;2023-12-04T10:04:19;12.02;;;10.93;;
25231;SDS011;13176;51.140;6.290;2023-12-04T10:06:48;11.85;;;10.75;;
25231;SDS011;13176;51.140;6.290;2023-12-04T10:09:17;11.95;;;10.75;;
25231;SDS011;13176;51.140;6.290;2023-12-04T10:11:44;12.60;;;11.13;;
25231;SDS011;13176;51.140;6.290;2023-12-04T10:14:15;11.48;;;10.48;;
25231;SDS011;13176;51.140;6.290;2023-12-04T10:16:44;12.32;;;11.13;;
25231;SDS011;13176;51.140;6.290;2023-12-04T10:19:20;12.75;;;11.38;;
25231;SDS011;13176;51.140;6.290;2023-12-04T10:21:56;14.05;;;11.40;;
25231;SDS011;13176;51.140;6.290;2023-12-04T10:24:35;12.57;;;11.13;;
25231;SDS011;13176;51.140;6.290;2023-12-04T10:27:06;12.40;;;11.02;;
25231;SDS011;13176;51.140;6.290;2023-12-04T10:29:47;15.85;;;10.80;;
25231;SDS011;13176;51.140;6.290;2023-12-04T10:32:18;16.60;;;10.93;;
25231;SDS011;13176;51.140;6.290;2023-12-04T10:34:49;15.45;;;11.75;;
25231;SDS011;13176;51.140;6.290;2023-12-04T10:37:15;12.05;;;10.85;;
25231;SDS011;13176;51.140;6.290;2023-12-04T10:39:47;11.75;;;10.40;;
25231;SDS011;13176;51.140;6.290;2023-12-04T10:42:22;12.35;;;10.45;;
25231;SDS011;13176;51.140;6.290;2023-12-04T10:44:51;12.23;;;11.02;;
25231;SDS011;13176;51.140;6.290;2023-12-04T10:47:19;11.50;;;10.40;;
25231;SDS011;13176;51.140;6.290;2023-12-04T10:49:50;13.40;;;10.63;;
25231;SDS011;13176;51.140;6.290;2023-12-04T10:52:17;12.48;;;11.23;;
25231;SDS011;13176;51.140;6.290;2023-12-04T10:54:48;12.77;;;11.48;;
25231;SDS011;13176;51.140;6.290;2023-12-04T10:57:22;12.52;;;11.23;;
25231;SDS011;13176;51.140;6.290;2023-12-04T11:00:03;12.93;;;11.73;;
25231;SDS011;13176;51.140;6.290;2023-12-04T11:02:33;14.40;;;11.68;;
25231;SDS011;13176;51.140;6.290;2023-12-04T11:05:07;15.75;;;12.10;;
25231;SDS011;13176;51.140;6.290;2023-12-04T11:07:41;13.55;;;12.10;;
25231;SDS011;13176;51.140;6.290;2023-12-04T11:10:41;16.90;;;12.10;;
25231;SDS011;13176;51.140;6.290;2023-12-04T11:13:15;12.30;;;11.20;;
25231;SDS011;13176;51.140;6.290;2023-12-04T11:15:47;13.68;;;12.35;;
25231;SDS011;13176;51.140;6.290;2023-12-04T11:18:20;13.35;;;12.15;;
25231;SDS011;13176;51.140;6.290;2023-12-04T11:20:56;13.95;;;12.55;;
25231;SDS011;13176;51.140;6.290;2023-12-04T11:23:25;14.05;;;12.35;;
25231;SDS011;13176;51.140;6.290;2023-12-04T11:25:51;14.00;;;12.60;;
25231;SDS011;13176;51.140;6.290;2023-12-04T11:28:19;14.13;;;12.85;;
25231;SDS011;13176;51.140;6.290;2023-12-04T11:30:46;15.32;;;13.90;;
25231;SDS011;13176;51.140;6.290;2023-12-04T11:33:14;14.38;;;13.13;;
25231;SDS011;13176;51.140;6.290;2023-12-04T11:35:41;17.00;;;15.63;;
25231;SDS011;13176;51.140;6.290;2023-12-04T11:38:07;17.25;;;15.88;;
25231;SDS011;13176;51.140;6.290;2023-12-04T11:40:35;19.83;;;18.30;;
25231;SDS011;13176;51.140;6.290;2023-12-04T11:43:23;24.42;;;22.60;;
25231;SDS011;13176;51.140;6.290;2023-12-04T11:45:51;22.65;;;21.02;;
25231;SDS011;13176;51.140;6.290;2023-12-04T11:48:24;22.98;;;20.98;;
25231;SDS011;13176;51.140;6.290;2023-12-04T11:50:52;27.17;;;25.08;;
25231;SDS011;13176;51.140;6.290;2023-12-04T11:53:18;27.13;;;24.98;;
25231;SDS011;13176;51.140;6.290;2023-12-04T11:55:45;30.27;;;28.17;;
25231;SDS011;13176;51.140;6.290;2023-12-04T11:58:12;32.45;;;30.15;;
25231;SDS011;13176;51.140;6.290;2023-12-04T12:00:39;25.45;;;23.27;;
25231;SDS011;13176;51.140;6.290;2023-12-04T12:03:08;30.38;;;28.13;;
25231;SDS011;13176;51.140;6.290;2023-12-04T12:05:48;32.75;;;30.48;;
25231;SDS011;13176;51.140;6.290;2023-12-04T12:08:18;27.35;;;25.48;;
25231;SDS011;13176;51.140;6.290;2023-12-04T12:10:45;26.88;;;24.98;;
25231;SDS011;13176;51.140;6.290;2023-12-04T12:13:13;24.27;;;22.48;;
25231;SDS011;13176;51.140;6.290;2023-12-04T12:15:40;24.63;;;22.70;;
25231;SDS011;13176;51.140;6.290;2023-12-04T12:18:06;21.85;;;20.10;;
25231;SDS011;13176;51.140;6.290;2023-12-04T12:20:36;22.08;;;20.20;;
25231;SDS011;13176;51.140;6.290;2023-12-04T12:23:03;18.85;;;17.40;;
25231;SDS011;13176;51.140;6.290;2023-12-04T12:25:30;20.98;;;18.85;;
25231;SDS011;13176;51.140;6.290;2023-12-04T12:27:56;21.33;;;19.55;;
25231;SDS011;13176;51.140;6.290;2023-12-04T12:30:23;21.45;;;19.65;;
25231;SDS011;13176;51.140;6.290;2023-12-04T12:32:50;21.90;;;20.08;;
25231;SDS011;13176;51.140;6.290;2023-12-04T12:35:17;23.10;;;21.40;;
25231;SDS011;13176;51.140;6.290;2023-12-04T12:37:43;20.83;;;19.13;;
25231;SDS011;13176;51.140;6.290;2023-12-04T12:40:10;19.73;;;18.00;;
25231;SDS011;13176;51.140;6.290;2023-12-04T12:42:36;19.70;;;18.25;;
25231;SDS011;13176;51.140;6.290;2023-12-04T12:45:08;19.15;;;17.55;;
25231;SDS011;13176;51.140;6.290;2023-12-04T12:47:37;19.92;;;18.33;;
25231;SDS011;13176;51.140;6.290;2023-12-04T12:50:10;19.63;;;17.83;;
25231;SDS011;13176;51.140;6.290;2023-12-04T12:52:37;19.10;;;17.35;;
25231;SDS011;13176;51.140;6.290;2023-12-04T12:55:04;18.80;;;17.20;;
25231;SDS011;13176;51.140;6.290;2023-12-04T12:57:31;19.83;;;18.05;;
25231;SDS011;13176;51.140;6.290;2023-12-04T12:59:58;22.75;;;20.75;;
25231;SDS011;13176;51.140;6.290;2023-12-04T13:02:25;20.67;;;18.58;;
25231;SDS011;13176;51.140;6.290;2023-12-04T13:04:52;19.90;;;18.10;;
25231;SDS011;13176;51.140;6.290;2023-12-04T13:07:20;20.50;;;18.40;;
25231;SDS011;13176;51.140;6.290;2023-12-04T13:09:47;21.35;;;19.42;;
25231;SDS011;13176;51.140;6.290;2023-12-04T13:12:14;21.33;;;19.42;;
25231;SDS011;13176;51.140;6.290;2023-12-04T13:14:41;20.00;;;18.33;;
25231;SDS011;13176;51.140;6.290;2023-12-04T13:17:07;21.67;;;19.55;;
25231;SDS011;13176;51.140;6.290;2023-12-04T13:19:36;21.13;;;19.15;;
25231;SDS011;13176;51.140;6.290;2023-12-04T13:22:03;20.77;;;18.73;;
25231;SDS011;13176;51.140;6.290;2023-12-04T13:24:31;19.75;;;17.75;;
25231;SDS011;13176;51.140;6.290;2023-12-04T13:26:57;20.73;;;18.73;;
25231;SDS011;13176;51.140;6.290;2023-12-04T13:29:24;20.55;;;18.67;;
25231;SDS011;13176;51.140;6.290;2023-12-04T13:31:51;20.35;;;18.25;;
25231;SDS011;13176;51.140;6.290;2023-12-04T13:34:18;19.00;;;17.27;;
25231;SDS011;13176;51.140;6.290;2023-12-04T13:36:45;20.50;;;18.40;;
25231;SDS011;13176;51.140;6.290;2023-12-04T13:39:12;19.50;;;17.70;;
25231;SDS011;13176;51.140;6.290;2023-12-04T13:41:53;18.20;;;16.42;;
25231;SDS011;13176;51.140;6.290;2023-12-04T13:44:38;19.20;;;17.38;;
25231;SDS011;13176;51.140;6.290;2023-12-04T13:47:05;18.83;;;17.05;;
25231;SDS011;13176;51.140;6.290;2023-12-04T13:49:33;19.33;;;17.27;;
25231;SDS011;13176;51.140;6.290;2023-12-04T13:52:00;18.80;;;17.05;;
25231;SDS011;13176;51.140;6.290;2023-12-04T13:54:26;19.10;;;17.17;;
25231;SDS011;13176;51.140;6.290;2023-12-04T13:57:09;16.88;;;15.20;;
25231;SDS011;13176;51.140;6.290;2023-12-04T13:59:41;17.65;;;16.25;;
25231;SDS011;13176;51.140;6.290;2023-12-04T14:02:08;17.85;;;16.33;;
25231;SDS011;13176;51.140;6.290;2023-12-04T14:04:38;18.38;;;16.67;;
25231;SDS011;13176;51.140;6.290;2023-12-04T14:07:08;17.85;;;16.35;;
25231;SDS011;13176;51.140;6.290;2023-12-04T14:09:37;17.55;;;15.95;;
25231;SDS011;13176;51.140;6.290;2023-12-04T14:12:03;17.92;;;16.35;;
25231;SDS011;13176;51.140;6.290;2023-12-04T14:14:31;17.35;;;15.65;;
25231;SDS011;13176;51.140;6.290;2023-12-04T14:16:59;19.13;;;17.60;;
25231;SDS011;13176;51.140;6.290;2023-12-04T14:19:28;17.35;;;15.73;;
25231;SDS011;13176;51.140;6.290;2023-12-04T14:21:54;17.45;;;15.93;;
25231;SDS011;13176;51.140;6.290;2023-12-04T14:24:22;17.55;;;16.02;;
25231;SDS011;13176;51.140;6.290;2023-12-04T14:26:48;17.60;;;16.10;;
25231;SDS011;13176;51.140;6.290;2023-12-04T14:29:15;18.15;;;16.58;;